Aviation Digital Data Service (ADDS)

Output produced by METARs form (0536 UTC 01 February 2015)
found at http://aviationweather.gov/adds/metars/
 
KBGR 312358Z 0100/0124 31015G28KT 6SM BLSN SCT090 
     FM011100 28007KT P6SM FEW250 
     FM011400 31012G20KT P6SM SKC